sensor_id;sensor_type;location;lat;lon;timestamp;pressure;altitude;pressure_sealevel;temperature;humidity
44996;BME280;30729;49.486;10.792;2022-09-17T00:00:21;97146.50;;;8.87;100.00
44996;BME280;30729;49.486;10.792;2022-09-17T00:02:51;97147.13;;;8.91;100.00
44996;BME280;30729;49.486;10.792;2022-09-17T00:05:22;97155.06;;;9.07;100.00
44996;BME280;30729;49.486;10.792;2022-09-17T00:07:51;97160.94;;;9.10;100.00
44996;BME280;30729;49.486;10.792;2022-09-17T00:10:18;97151.38;;;9.11;100.00
44996;BME280;30729;49.486;10.792;2022-09-17T00:12:45;97156.31;;;9.06;100.00
44996;BME280;30729;49.486;10.792;2022-09-17T00:15:10;97156.59;;;9.08;100.00
44996;BME280;30729;49.486;10.792;2022-09-17T00:17:36;97150.09;;;9.21;100.00
44996;BME280;30729;49.486;10.792;2022-09-17T00:20:03;97155.00;;;9.26;100.00
44996;BME280;30729;49.486;10.792;2022-09-17T00:22:29;97152.53;;;9.28;100.00
44996;BME280;30729;49.486;10.792;2022-09-17T00:24:54;97156.84;;;9.29;100.00
44996;BME280;30729;49.486;10.792;2022-09-17T00:27:19;97160.19;;;9.42;100.00
44996;BME280;30729;49.486;10.792;2022-09-17T00:29:47;97158.66;;;9.41;100.00
44996;BME280;30729;49.486;10.792;2022-09-17T00:32:12;97155.88;;;9.41;100.00
44996;BME280;30729;49.486;10.792;2022-09-17T00:34:37;97164.75;;;9.54;100.00
44996;BME280;30729;49.486;10.792;2022-09-17T00:37:03;97153.63;;;9.54;100.00
44996;BME280;30729;49.486;10.792;2022-09-17T00:39:28;97157.66;;;9.53;100.00
44996;BME280;30729;49.486;10.792;2022-09-17T00:41:53;97163.81;;;9.57;100.00
44996;BME280;30729;49.486;10.792;2022-09-17T00:47:36;97160.13;;;9.51;100.00
44996;BME280;30729;49.486;10.792;2022-09-17T00:50:11;97143.72;;;9.63;100.00
44996;BME280;30729;49.486;10.792;2022-09-17T00:52:44;97156.38;;;9.64;100.00
44996;BME280;30729;49.486;10.792;2022-09-17T00:55:16;97165.41;;;9.73;100.00
44996;BME280;30729;49.486;10.792;2022-09-17T00:57:44;97157.91;;;9.65;100.00
44996;BME280;30729;49.486;10.792;2022-09-17T01:00:12;97164.75;;;9.54;100.00
44996;BME280;30729;49.486;10.792;2022-09-17T01:02:38;97154.34;;;9.40;100.00
44996;BME280;30729;49.486;10.792;2022-09-17T01:05:05;97149.59;;;9.31;100.00
44996;BME280;30729;49.486;10.792;2022-09-17T01:12:49;97157.38;;;9.18;100.00
44996;BME280;30729;49.486;10.792;2022-09-17T01:15:54;97160.00;;;9.13;100.00
44996;BME280;30729;49.486;10.792;2022-09-17T01:23:49;97168.09;;;8.92;100.00
44996;BME280;30729;49.486;10.792;2022-09-17T01:32:06;97172.09;;;8.82;100.00
44996;BME280;30729;49.486;10.792;2022-09-17T01:34:44;97162.38;;;8.87;100.00
44996;BME280;30729;49.486;10.792;2022-09-17T01:40:06;97164.75;;;8.70;100.00
44996;BME280;30729;49.486;10.792;2022-09-17T01:42:43;97170.31;;;8.70;100.00
44996;BME280;30729;49.486;10.792;2022-09-17T01:47:55;97178.94;;;8.72;100.00
44996;BME280;30729;49.486;10.792;2022-09-17T01:50:29;97170.31;;;8.70;100.00
44996;BME280;30729;49.486;10.792;2022-09-17T01:52:55;97181.41;;;8.70;100.00
44996;BME280;30729;49.486;10.792;2022-09-17T01:55:25;97183.41;;;8.69;100.00
44996;BME280;30729;49.486;10.792;2022-09-17T01:57:57;97180.44;;;8.82;100.00
44996;BME280;30729;49.486;10.792;2022-09-17T02:00:25;97179.84;;;8.69;100.00
44996;BME280;30729;49.486;10.792;2022-09-17T02:05:39;97190.78;;;8.72;100.00
44996;BME280;30729;49.486;10.792;2022-09-17T02:08:18;97183.41;;;8.78;100.00
44996;BME280;30729;49.486;10.792;2022-09-17T02:10:50;97187.84;;;8.85;100.00
44996;BME280;30729;49.486;10.792;2022-09-17T02:16:24;97186.28;;;8.93;100.00
44996;BME280;30729;49.486;10.792;2022-09-17T02:19:09;97186.00;;;8.91;100.00
44996;BME280;30729;49.486;10.792;2022-09-17T02:29:48;97171.41;;;9.15;100.00
44996;BME280;30729;49.486;10.792;2022-09-17T02:32:15;97172.19;;;9.15;100.00
44996;BME280;30729;49.486;10.792;2022-09-17T02:34:43;97180.16;;;9.31;100.00
44996;BME280;30729;49.486;10.792;2022-09-17T02:37:09;97173.66;;;9.34;100.00
44996;BME280;30729;49.486;10.792;2022-09-17T02:39:35;97172.09;;;9.33;100.00
44996;BME280;30729;49.486;10.792;2022-09-17T02:50:33;97147.75;;;9.28;100.00
44996;BME280;30729;49.486;10.792;2022-09-17T02:53:11;97153.31;;;9.28;100.00
44996;BME280;30729;49.486;10.792;2022-09-17T02:58:16;97152.56;;;9.19;100.00
44996;BME280;30729;49.486;10.792;2022-09-17T03:00:46;97144.25;;;9.19;100.00
44996;BME280;30729;49.486;10.792;2022-09-17T03:03:33;97145.78;;;9.20;100.00
44996;BME280;30729;49.486;10.792;2022-09-17T03:06:00;97138.38;;;9.17;100.00
44996;BME280;30729;49.486;10.792;2022-09-17T03:08:33;97140.38;;;9.16;100.00
44996;BME280;30729;49.486;10.792;2022-09-17T03:11:00;97127.56;;;9.19;100.00
44996;BME280;30729;49.486;10.792;2022-09-17T03:13:26;97134.94;;;9.31;100.00
44996;BME280;30729;49.486;10.792;2022-09-17T03:15:51;97142.66;;;9.27;100.00
44996;BME280;30729;49.486;10.792;2022-09-17T03:18:17;97133.44;;;9.12;100.00
44996;BME280;30729;49.486;10.792;2022-09-17T03:20:42;97138.63;;;9.28;100.00
44996;BME280;30729;49.486;10.792;2022-09-17T03:23:07;97138.63;;;9.28;100.00
44996;BME280;30729;49.486;10.792;2022-09-17T03:25:33;97135.69;;;9.31;100.00
44996;BME280;30729;49.486;10.792;2022-09-17T03:27:58;97139.28;;;9.23;100.00
44996;BME280;30729;49.486;10.792;2022-09-17T03:30:24;97135.41;;;9.20;100.00
44996;BME280;30729;49.486;10.792;2022-09-17T03:32:49;97136.97;;;9.21;100.00
44996;BME280;30729;49.486;10.792;2022-09-17T03:35:15;97135.41;;;9.20;100.00
44996;BME280;30729;49.486;10.792;2022-09-17T03:37:40;97133.44;;;9.12;100.00
44996;BME280;30729;49.486;10.792;2022-09-17T03:40:06;97130.09;;;8.98;100.00
44996;BME280;30729;49.486;10.792;2022-09-17T03:42:31;97120.69;;;9.05;100.00
44996;BME280;30729;49.486;10.792;2022-09-17T03:44:57;97129.34;;;8.98;100.00
44996;BME280;30729;49.486;10.792;2022-09-17T03:47:22;97124.28;;;8.87;100.00
44996;BME280;30729;49.486;10.792;2022-09-17T03:49:47;97127.53;;;8.86;100.00
44996;BME280;30729;49.486;10.792;2022-09-17T03:52:13;97136.47;;;8.80;100.00
44996;BME280;30729;49.486;10.792;2022-09-17T03:54:38;97134.94;;;8.79;100.00
44996;BME280;30729;49.486;10.792;2022-09-17T03:57:04;97134.19;;;8.79;100.00
44996;BME280;30729;49.486;10.792;2022-09-17T03:59:29;97134.50;;;8.72;100.00
44996;BME280;30729;49.486;10.792;2022-09-17T04:01:55;97136.66;;;8.77;100.00
44996;BME280;30729;49.486;10.792;2022-09-17T04:04:20;97140.06;;;8.72;100.00
44996;BME280;30729;49.486;10.792;2022-09-17T04:06:45;97139.56;;;8.82;100.00
44996;BME280;30729;49.486;10.792;2022-09-17T04:09:11;97149.91;;;8.82;100.00
44996;BME280;30729;49.486;10.792;2022-09-17T04:11:36;97142.34;;;8.82;100.00
44996;BME280;30729;49.486;10.792;2022-09-17T04:14:01;97137.53;;;8.92;100.00
44996;BME280;30729;49.486;10.792;2022-09-17T04:16:27;97137.69;;;8.89;100.00
44996;BME280;30729;49.486;10.792;2022-09-17T04:18:52;97144.94;;;8.86;100.00
44996;BME280;30729;49.486;10.792;2022-09-17T04:21:18;97141.88;;;8.84;100.00
44996;BME280;30729;49.486;10.792;2022-09-17T04:23:43;97123.69;;;8.83;100.00
44996;BME280;30729;49.486;10.792;2022-09-17T04:26:08;97129.50;;;8.94;100.00
44996;BME280;30729;49.486;10.792;2022-09-17T04:28:34;97127.34;;;8.89;100.00
44996;BME280;30729;49.486;10.792;2022-09-17T04:31:00;97125.47;;;8.95;100.00
44996;BME280;30729;49.486;10.792;2022-09-17T04:33:25;97116.72;;;8.88;100.00
44996;BME280;30729;49.486;10.792;2022-09-17T04:35:50;97114.72;;;8.88;100.00
44996;BME280;30729;49.486;10.792;2022-09-17T04:38:16;97119.03;;;8.89;100.00
44996;BME280;30729;49.486;10.792;2022-09-17T04:40:44;97121.00;;;8.98;100.00
44996;BME280;30729;49.486;10.792;2022-09-17T04:43:10;97115.31;;;8.92;100.00
44996;BME280;30729;49.486;10.792;2022-09-17T04:45:36;97117.16;;;8.95;100.00
44996;BME280;30729;49.486;10.792;2022-09-17T04:48:01;97118.75;;;8.87;100.00
44996;BME280;30729;49.486;10.792;2022-09-17T04:50:27;97126.22;;;9.05;100.00
44996;BME280;30729;49.486;10.792;2022-09-17T04:52:52;97134.38;;;9.08;100.00
44996;BME280;30729;49.486;10.792;2022-09-17T04:55:18;97134.38;;;9.08;100.00
44996;BME280;30729;49.486;10.792;2022-09-17T04:57:51;97130.44;;;8.91;100.00
44996;BME280;30729;49.486;10.792;2022-09-17T05:00:18;97127.00;;;9.05;100.00
44996;BME280;30729;49.486;10.792;2022-09-17T05:02:49;97126.34;;;9.11;100.00
44996;BME280;30729;49.486;10.792;2022-09-17T05:05:16;97132.53;;;9.15;100.00
44996;BME280;30729;49.486;10.792;2022-09-17T05:07:42;97133.44;;;9.12;100.00
44996;BME280;30729;49.486;10.792;2022-09-17T05:10:09;97138.72;;;9.10;100.00
44996;BME280;30729;49.486;10.792;2022-09-17T05:12:35;97142.56;;;9.12;100.00
44996;BME280;30729;49.486;10.792;2022-09-17T05:15:01;97143.03;;;9.11;100.00
44996;BME280;30729;49.486;10.792;2022-09-17T05:17:26;97149.78;;;9.19;100.00
44996;BME280;30729;49.486;10.792;2022-09-17T05:19:51;97149.78;;;9.19;100.00
44996;BME280;30729;49.486;10.792;2022-09-17T05:22:19;97151.66;;;9.13;100.00
44996;BME280;30729;49.486;10.792;2022-09-17T05:24:45;97161.84;;;9.16;100.00
44996;BME280;30729;49.486;10.792;2022-09-17T05:27:11;97162.81;;;8.94;100.00
44996;BME280;30729;49.486;10.792;2022-09-17T05:29:36;97169.00;;;8.98;100.00
44996;BME280;30729;49.486;10.792;2022-09-17T05:32:05;97175.44;;;9.14;100.00
44996;BME280;30729;49.486;10.792;2022-09-17T05:34:31;97172.41;;;8.93;100.00
44996;BME280;30729;49.486;10.792;2022-09-17T05:36:56;97174.59;;;8.80;100.00
44996;BME280;30729;49.486;10.792;2022-09-17T05:39:21;97167.94;;;8.87;100.00
44996;BME280;30729;49.486;10.792;2022-09-17T05:41:50;97183.06;;;8.86;100.00
44996;BME280;30729;49.486;10.792;2022-09-17T05:44:17;97171.19;;;8.85;100.00
44996;BME280;30729;49.486;10.792;2022-09-17T05:46:43;97171.22;;;8.67;100.00
44996;BME280;30729;49.486;10.792;2022-09-17T05:49:08;97164.44;;;8.68;100.00
44996;BME280;30729;49.486;10.792;2022-09-17T05:51:33;97168.13;;;8.65;100.00
44996;BME280;30729;49.486;10.792;2022-09-17T05:53:59;97173.88;;;8.61;100.00
44996;BME280;30729;49.486;10.792;2022-09-17T05:56:24;97170.31;;;8.51;100.00
44996;BME280;30729;49.486;10.792;2022-09-17T05:58:54;97161.38;;;8.38;100.00
44996;BME280;30729;49.486;10.792;2022-09-17T06:01:20;97166.91;;;8.38;100.00
44996;BME280;30729;49.486;10.792;2022-09-17T06:03:46;97170.78;;;8.41;100.00
44996;BME280;30729;49.486;10.792;2022-09-17T06:06:11;97165.09;;;8.44;100.00
44996;BME280;30729;49.486;10.792;2022-09-17T06:08:36;97167.38;;;8.46;100.00
44996;BME280;30729;49.486;10.792;2022-09-17T06:11:03;97170.78;;;8.41;100.00
44996;BME280;30729;49.486;10.792;2022-09-17T06:13:29;97173.38;;;8.35;100.00
44996;BME280;30729;49.486;10.792;2022-09-17T06:15:55;97166.31;;;8.34;100.00
44996;BME280;30729;49.486;10.792;2022-09-17T06:18:20;97183.09;;;8.30;100.00
44996;BME280;30729;49.486;10.792;2022-09-17T06:20:57;97171.56;;;8.41;100.00
44996;BME280;30729;49.486;10.792;2022-09-17T06:23:23;97179.25;;;8.46;100.00
44996;BME280;30729;49.486;10.792;2022-09-17T06:25:57;97168.75;;;8.32;100.00
44996;BME280;30729;49.486;10.792;2022-09-17T06:28:24;97185.25;;;8.36;100.00
44996;BME280;30729;49.486;10.792;2022-09-17T06:30:49;97182.63;;;8.32;100.00
44996;BME280;30729;49.486;10.792;2022-09-17T06:33:18;97187.59;;;8.37;100.00
44996;BME280;30729;49.486;10.792;2022-09-17T06:35:44;97178.16;;;8.35;100.00
44996;BME280;30729;49.486;10.792;2022-09-17T06:38:09;97191.72;;;8.32;100.00
44996;BME280;30729;49.486;10.792;2022-09-17T06:40:35;97183.91;;;8.40;100.00
44996;BME280;30729;49.486;10.792;2022-09-17T06:43:00;97185.44;;;8.41;100.00
44996;BME280;30729;49.486;10.792;2022-09-17T06:45:26;97192.22;;;8.40;100.00
44996;BME280;30729;49.486;10.792;2022-09-17T06:47:52;97202.41;;;8.43;100.00
44996;BME280;30729;49.486;10.792;2022-09-17T06:50:18;97193.75;;;8.41;100.00
44996;BME280;30729;49.486;10.792;2022-09-17T06:52:48;97206.97;;;8.28;100.00
44996;BME280;30729;49.486;10.792;2022-09-17T06:55:13;97211.31;;;8.38;100.00
44996;BME280;30729;49.486;10.792;2022-09-17T06:57:40;97213.94;;;8.51;100.00
44996;BME280;30729;49.486;10.792;2022-09-17T07:00:06;97218.44;;;8.48;100.00
44996;BME280;30729;49.486;10.792;2022-09-17T07:02:32;97209.78;;;8.55;100.00
44996;BME280;30729;49.486;10.792;2022-09-17T07:04:57;97221.69;;;8.56;100.00
44996;BME280;30729;49.486;10.792;2022-09-17T07:07:22;97226.75;;;8.48;100.00
44996;BME280;30729;49.486;10.792;2022-09-17T07:09:48;97227.38;;;8.52;100.00
44996;BME280;30729;49.486;10.792;2022-09-17T07:12:13;97219.97;;;8.58;100.00
44996;BME280;30729;49.486;10.792;2022-09-17T07:14:39;97234.94;;;8.61;100.00
44996;BME280;30729;49.486;10.792;2022-09-17T07:17:04;97232.59;;;8.69;100.00
44996;BME280;30729;49.486;10.792;2022-09-17T07:19:29;97236.63;;;8.58;100.00
44996;BME280;30729;49.486;10.792;2022-09-17T07:21:55;97232.78;;;8.56;100.00
44996;BME280;30729;49.486;10.792;2022-09-17T07:24:20;97240.31;;;8.65;100.00
44996;BME280;30729;49.486;10.792;2022-09-17T07:26:45;97238.16;;;8.69;100.00
44996;BME280;30729;49.486;10.792;2022-09-17T07:29:11;97242.16;;;8.68;100.00
44996;BME280;30729;49.486;10.792;2022-09-17T07:31:36;97250.50;;;8.58;100.00
44996;BME280;30729;49.486;10.792;2022-09-17T07:34:02;97242.94;;;8.68;100.00
44996;BME280;30729;49.486;10.792;2022-09-17T07:36:27;97249.56;;;8.71;100.00
44996;BME280;30729;49.486;10.792;2022-09-17T07:38:53;97243.41;;;8.76;100.00
44996;BME280;30729;49.486;10.792;2022-09-17T07:41:18;97247.69;;;8.86;100.00
44996;BME280;30729;49.486;10.792;2022-09-17T07:43:44;97243.38;;;8.85;100.00
44996;BME280;30729;49.486;10.792;2022-09-17T07:46:19;97250.78;;;8.97;100.00
44996;BME280;30729;49.486;10.792;2022-09-17T07:48:45;97259.38;;;9.08;100.00
44996;BME280;30729;49.486;10.792;2022-09-17T07:51:18;97256.34;;;8.97;100.00
44996;BME280;30729;49.486;10.792;2022-09-17T07:53:44;97265.28;;;9.01;100.00
44996;BME280;30729;49.486;10.792;2022-09-17T07:56:10;97266.81;;;9.12;100.00
44996;BME280;30729;49.486;10.792;2022-09-17T07:58:35;97257.25;;;9.03;100.00
44996;BME280;30729;49.486;10.792;2022-09-17T08:01:11;97268.06;;;9.01;100.00
44996;BME280;30729;49.486;10.792;2022-09-17T08:03:37;97270.84;;;9.01;100.00
44996;BME280;30729;49.486;10.792;2022-09-17T08:06:04;97276.09;;;8.90;100.00
44996;BME280;30729;49.486;10.792;2022-09-17T08:08:31;97285.50;;;8.93;100.00
44996;BME280;30729;49.486;10.792;2022-09-17T08:11:12;97270.69;;;8.96;100.00
44996;BME280;30729;49.486;10.792;2022-09-17T08:13:38;97288.13;;;8.96;100.00
44996;BME280;30729;49.486;10.792;2022-09-17T08:16:06;97292.44;;;8.97;100.00
44996;BME280;30729;49.486;10.792;2022-09-17T08:18:32;97285.03;;;9.03;100.00
44996;BME280;30729;49.486;10.792;2022-09-17T08:20:59;97288.13;;;9.05;100.00
44996;BME280;30729;49.486;10.792;2022-09-17T08:23:26;97290.59;;;8.94;100.00
44996;BME280;30729;49.486;10.792;2022-09-17T08:25:56;97292.44;;;9.06;100.00
44996;BME280;30729;49.486;10.792;2022-09-17T08:28:23;97294.28;;;9.10;100.00
44996;BME280;30729;49.486;10.792;2022-09-17T08:30:50;97294.28;;;9.19;100.00
44996;BME280;30729;49.486;10.792;2022-09-17T08:33:16;97304.13;;;9.29;100.00
44996;BME280;30729;49.486;10.792;2022-09-17T08:35:42;97294.28;;;9.19;100.00
44996;BME280;30729;49.486;10.792;2022-09-17T08:38:07;97304.13;;;9.29;100.00
44996;BME280;30729;49.486;10.792;2022-09-17T08:40:41;97292.38;;;9.34;100.00
44996;BME280;30729;49.486;10.792;2022-09-17T08:43:14;97305.34;;;9.37;100.00
44996;BME280;30729;49.486;10.792;2022-09-17T08:45:42;97305.66;;;9.30;100.00
44996;BME280;30729;49.486;10.792;2022-09-17T08:48:10;97313.81;;;9.43;100.00
44996;BME280;30729;49.486;10.792;2022-09-17T08:50:38;97314.16;;;9.36;100.00
44996;BME280;30729;49.486;10.792;2022-09-17T09:01:33;97308.03;;;9.74;100.00
44996;BME280;30729;49.486;10.792;2022-09-17T09:04:30;97305.56;;;9.76;100.00
44996;BME280;30729;49.486;10.792;2022-09-17T09:07:09;97309.25;;;9.73;100.00
44996;BME280;30729;49.486;10.792;2022-09-17T09:09:50;97306.28;;;9.86;100.00
44996;BME280;30729;49.486;10.792;2022-09-17T09:12:27;97307.69;;;9.81;100.00
44996;BME280;30729;49.486;10.792;2022-09-17T09:15:00;97306.44;;;9.82;100.00
44996;BME280;30729;49.486;10.792;2022-09-17T09:17:33;97306.16;;;9.80;100.00
44996;BME280;30729;49.486;10.792;2022-09-17T09:20:03;97316.69;;;9.76;100.00
44996;BME280;30729;49.486;10.792;2022-09-17T09:22:55;97314.16;;;9.87;100.00
44996;BME280;30729;49.486;10.792;2022-09-17T09:25:24;97310.75;;;9.83;100.00
44996;BME280;30729;49.486;10.792;2022-09-17T09:33:45;97310.09;;;9.97;100.00
44996;BME280;30729;49.486;10.792;2022-09-17T09:36:13;97314.66;;;10.09;100.00
44996;BME280;30729;49.486;10.792;2022-09-17T09:39:01;97313.72;;;10.13;100.00
44996;BME280;30729;49.486;10.792;2022-09-17T09:44:04;97312.19;;;10.12;100.00
44996;BME280;30729;49.486;10.792;2022-09-17T09:57:44;97307.41;;;11.23;100.00
44996;BME280;30729;49.486;10.792;2022-09-17T10:00:29;97310.66;;;11.21;100.00
44996;BME280;30729;49.486;10.792;2022-09-17T10:05:39;97317.94;;;10.89;100.00
44996;BME280;30729;49.486;10.792;2022-09-17T10:08:15;97326.75;;;10.88;100.00
44996;BME280;30729;49.486;10.792;2022-09-17T10:11:00;97318.94;;;10.77;100.00
44996;BME280;30729;49.486;10.792;2022-09-17T10:13:31;97320.81;;;10.95;100.00
44996;BME280;30729;49.486;10.792;2022-09-17T10:16:15;97322.81;;;11.33;100.00
44996;BME280;30729;49.486;10.792;2022-09-17T10:18:44;97324.16;;;11.38;100.00
44996;BME280;30729;49.486;10.792;2022-09-17T10:23:45;97315.81;;;10.99;100.00
44996;BME280;30729;49.486;10.792;2022-09-17T10:26:22;97316.50;;;11.08;100.00
44996;BME280;30729;49.486;10.792;2022-09-17T10:28:51;97319.75;;;10.92;100.00
44996;BME280;30729;49.486;10.792;2022-09-17T10:31:17;97302.00;;;11.04;100.00
44996;BME280;30729;49.486;10.792;2022-09-17T10:33:57;97310.84;;;11.03;100.00
44996;BME280;30729;49.486;10.792;2022-09-17T10:36:43;97312.19;;;11.07;100.00
44996;BME280;30729;49.486;10.792;2022-09-17T10:39:32;97311.44;;;11.22;100.00
44996;BME280;30729;49.486;10.792;2022-09-17T10:42:14;97307.81;;;11.90;100.00
44996;BME280;30729;49.486;10.792;2022-09-17T10:44:54;97303.03;;;12.10;100.00
44996;BME280;30729;49.486;10.792;2022-09-17T10:47:30;97294.25;;;12.18;100.00
44996;BME280;30729;49.486;10.792;2022-09-17T10:50:29;97302.50;;;11.92;100.00
44996;BME280;30729;49.486;10.792;2022-09-17T10:52:56;97297.06;;;12.18;100.00
44996;BME280;30729;49.486;10.792;2022-09-17T10:58:18;97289.16;;;13.70;100.00
44996;BME280;30729;49.486;10.792;2022-09-17T11:08:52;97269.78;;;13.35;100.00
44996;BME280;30729;49.486;10.792;2022-09-17T11:11:41;97275.66;;;13.17;100.00
44996;BME280;30729;49.486;10.792;2022-09-17T11:20:22;97280.47;;;11.49;100.00
44996;BME280;30729;49.486;10.792;2022-09-17T11:25:46;97283.34;;;10.96;100.00
44996;BME280;30729;49.486;10.792;2022-09-17T11:31:19;97267.94;;;11.89;100.00
44996;BME280;30729;49.486;10.792;2022-09-17T11:36:59;97250.66;;;12.61;100.00
44996;BME280;30729;49.486;10.792;2022-09-17T11:42:38;97252.09;;;11.66;100.00
44996;BME280;30729;49.486;10.792;2022-09-17T11:45:46;97253.53;;;11.91;100.00
44996;BME280;30729;49.486;10.792;2022-09-17T11:48:13;97251.91;;;12.19;100.00
44996;BME280;30729;49.486;10.792;2022-09-17T11:50:55;97241.66;;;12.31;100.00
44996;BME280;30729;49.486;10.792;2022-09-17T11:53:29;97243.94;;;12.32;100.00
44996;BME280;30729;49.486;10.792;2022-09-17T11:55:59;97247.72;;;12.50;100.00
44996;BME280;30729;49.486;10.792;2022-09-17T12:01:03;97245.78;;;13.54;100.00
44996;BME280;30729;49.486;10.792;2022-09-17T12:03:56;97244.44;;;14.19;100.00
44996;BME280;30729;49.486;10.792;2022-09-17T12:06:34;97258.28;;;14.39;100.00
44996;BME280;30729;49.486;10.792;2022-09-17T12:09:08;97255.22;;;14.85;100.00
44996;BME280;30729;49.486;10.792;2022-09-17T12:11:44;97256.53;;;14.42;100.00
44996;BME280;30729;49.486;10.792;2022-09-17T12:14:22;97249.53;;;14.63;100.00
44996;BME280;30729;49.486;10.792;2022-09-17T12:16:52;97231.78;;;15.00;100.00
44996;BME280;30729;49.486;10.792;2022-09-17T12:19:34;97236.34;;;14.86;100.00
44996;BME280;30729;49.486;10.792;2022-09-17T12:22:06;97240.28;;;14.08;100.00
44996;BME280;30729;49.486;10.792;2022-09-17T12:24:33;97235.88;;;14.39;100.00
44996;BME280;30729;49.486;10.792;2022-09-17T12:30:03;97234.59;;;13.54;100.00
44996;BME280;30729;49.486;10.792;2022-09-17T12:35:28;97221.50;;;12.68;100.00
44996;BME280;30729;49.486;10.792;2022-09-17T12:49:13;97223.25;;;13.11;100.00
44996;BME280;30729;49.486;10.792;2022-09-17T12:52:06;97222.41;;;13.26;100.00
44996;BME280;30729;49.486;10.792;2022-09-17T13:00:43;97205.97;;;14.14;100.00
44996;BME280;30729;49.486;10.792;2022-09-17T13:03:18;97200.91;;;13.75;100.00
44996;BME280;30729;49.486;10.792;2022-09-17T13:14:28;97208.78;;;13.13;100.00
44996;BME280;30729;49.486;10.792;2022-09-17T13:17:05;97213.38;;;12.90;100.00
44996;BME280;30729;49.486;10.792;2022-09-17T13:19:41;97208.22;;;12.83;100.00
44996;BME280;30729;49.486;10.792;2022-09-17T13:22:15;97222.44;;;12.59;100.00
44996;BME280;30729;49.486;10.792;2022-09-17T13:24:42;97233.91;;;11.85;100.00
44996;BME280;30729;49.486;10.792;2022-09-17T13:27:21;97243.38;;;11.14;100.00
44996;BME280;30729;49.486;10.792;2022-09-17T13:37:39;97253.94;;;11.09;100.00
44996;BME280;30729;49.486;10.792;2022-09-17T13:40:33;97258.06;;;10.84;100.00
44996;BME280;30729;49.486;10.792;2022-09-17T13:48:26;97242.16;;;10.61;100.00
44996;BME280;30729;49.486;10.792;2022-09-17T13:50:53;97238.94;;;11.51;100.00
44996;BME280;30729;49.486;10.792;2022-09-17T13:53:20;97232.72;;;12.47;100.00
44996;BME280;30729;49.486;10.792;2022-09-17T13:55:58;97221.94;;;13.33;100.00
44996;BME280;30729;49.486;10.792;2022-09-17T13:58:28;97221.84;;;13.85;100.00
44996;BME280;30729;49.486;10.792;2022-09-17T14:01:12;97211.50;;;14.02;100.00
44996;BME280;30729;49.486;10.792;2022-09-17T14:11:36;97209.22;;;13.64;100.00
44996;BME280;30729;49.486;10.792;2022-09-17T14:16:30;97215.59;;;12.40;100.00
44996;BME280;30729;49.486;10.792;2022-09-17T14:24:34;97213.66;;;12.92;100.00
44996;BME280;30729;49.486;10.792;2022-09-17T14:30:19;97211.19;;;13.95;100.00
44996;BME280;30729;49.486;10.792;2022-09-17T14:35:42;97201.66;;;14.83;100.00
44996;BME280;30729;49.486;10.792;2022-09-17T14:38:18;97200.72;;;15.31;100.00
44996;BME280;30729;49.486;10.792;2022-09-17T14:40:47;97207.38;;;15.51;100.00
44996;BME280;30729;49.486;10.792;2022-09-17T14:43:20;97199.59;;;14.67;100.00
44996;BME280;30729;49.486;10.792;2022-09-17T14:45:50;97202.53;;;14.41;100.00
44996;BME280;30729;49.486;10.792;2022-09-17T14:48:46;97199.94;;;14.32;100.00
44996;BME280;30729;49.486;10.792;2022-09-17T14:53:47;97199.97;;;13.89;100.00
44996;BME280;30729;49.486;10.792;2022-09-17T14:56:16;97191.69;;;13.69;100.00
44996;BME280;30729;49.486;10.792;2022-09-17T14:58:53;97196.25;;;14.09;100.00
44996;BME280;30729;49.486;10.792;2022-09-17T15:01:27;97195.00;;;14.58;100.00
44996;BME280;30729;49.486;10.792;2022-09-17T15:06:37;97188.00;;;14.43;100.00
44996;BME280;30729;49.486;10.792;2022-09-17T15:09:03;97193.94;;;14.50;100.00
44996;BME280;30729;49.486;10.792;2022-09-17T15:11:29;97193.53;;;14.91;100.00
44996;BME280;30729;49.486;10.792;2022-09-17T15:13:55;97192.56;;;15.28;100.00
44996;BME280;30729;49.486;10.792;2022-09-17T15:16:25;97196.13;;;15.56;100.00
44996;BME280;30729;49.486;10.792;2022-09-17T15:18:56;97189.25;;;15.57;100.00
44996;BME280;30729;49.486;10.792;2022-09-17T15:21:38;97200.47;;;15.24;100.00
44996;BME280;30729;49.486;10.792;2022-09-17T15:24:22;97200.81;;;14.49;100.00
44996;BME280;30729;49.486;10.792;2022-09-17T15:26:56;97208.22;;;13.67;100.00
44996;BME280;30729;49.486;10.792;2022-09-17T15:29:26;97206.84;;;13.88;100.00
44996;BME280;30729;49.486;10.792;2022-09-17T15:31:53;97210.88;;;14.30;100.00
44996;BME280;30729;49.486;10.792;2022-09-17T15:34:19;97204.31;;;14.44;100.00
44996;BME280;30729;49.486;10.792;2022-09-17T15:39:40;97201.25;;;15.24;100.00
44996;BME280;30729;49.486;10.792;2022-09-17T15:42:22;97197.34;;;14.77;100.00
44996;BME280;30729;49.486;10.792;2022-09-17T15:44:49;97210.19;;;14.41;100.00
44996;BME280;30729;49.486;10.792;2022-09-17T15:47:35;97204.19;;;13.73;100.00
44996;BME280;30729;49.486;10.792;2022-09-17T15:50:17;97205.91;;;14.02;100.00
44996;BME280;30729;49.486;10.792;2022-09-17T15:52:43;97216.66;;;13.72;100.00
44996;BME280;30729;49.486;10.792;2022-09-17T15:57:59;97211.88;;;13.78;100.00
44996;BME280;30729;49.486;10.792;2022-09-17T16:00:25;97208.72;;;14.56;100.00
44996;BME280;30729;49.486;10.792;2022-09-17T16:02:51;97212.09;;;13.75;100.00
44996;BME280;30729;49.486;10.792;2022-09-17T16:07:45;97209.22;;;13.32;100.00
44996;BME280;30729;49.486;10.792;2022-09-17T16:10:12;97215.97;;;13.51;100.00
44996;BME280;30729;49.486;10.792;2022-09-17T16:12:38;97215.59;;;13.32;100.00
44996;BME280;30729;49.486;10.792;2022-09-17T16:15:05;97217.09;;;13.07;100.00
44996;BME280;30729;49.486;10.792;2022-09-17T16:17:41;97211.84;;;12.89;100.00